sensor_id;sensor_type;location;lat;lon;timestamp;P1;durP1;ratioP1;P2;durP2;ratioP2
40707;SDS011;26392;42.696;23.350;2022-10-19T00:01:05;18.67;;;7.10;;
40707;SDS011;26392;42.696;23.350;2022-10-19T00:03:42;18.02;;;7.95;;
40707;SDS011;26392;42.696;23.350;2022-10-19T00:08:43;18.60;;;8.37;;
40707;SDS011;26392;42.696;23.350;2022-10-19T00:11:09;14.38;;;6.95;;
40707;SDS011;26392;42.696;23.350;2022-10-19T00:13:35;17.90;;;6.90;;
40707;SDS011;26392;42.696;23.350;2022-10-19T00:16:01;17.33;;;7.82;;
40707;SDS011;26392;42.696;23.350;2022-10-19T00:18:32;18.67;;;7.82;;
40707;SDS011;26392;42.696;23.350;2022-10-19T00:21:01;15.80;;;8.07;;
40707;SDS011;26392;42.696;23.350;2022-10-19T00:23:30;20.95;;;7.30;;
40707;SDS011;26392;42.696;23.350;2022-10-19T00:25:56;20.27;;;7.68;;
40707;SDS011;26392;42.696;23.350;2022-10-19T00:28:22;21.33;;;8.20;;
40707;SDS011;26392;42.696;23.350;2022-10-19T00:30:47;21.45;;;8.43;;
40707;SDS011;26392;42.696;23.350;2022-10-19T00:33:12;24.13;;;8.00;;
40707;SDS011;26392;42.696;23.350;2022-10-19T00:35:41;20.48;;;7.53;;
40707;SDS011;26392;42.696;23.350;2022-10-19T00:38:06;22.00;;;8.30;;
40707;SDS011;26392;42.696;23.350;2022-10-19T00:40:38;15.20;;;7.43;;
40707;SDS011;26392;42.696;23.350;2022-10-19T00:43:08;16.23;;;8.23;;
40707;SDS011;26392;42.696;23.350;2022-10-19T00:45:44;24.83;;;8.93;;
40707;SDS011;26392;42.696;23.350;2022-10-19T00:48:11;18.08;;;8.65;;
40707;SDS011;26392;42.696;23.350;2022-10-19T00:50:39;19.95;;;8.52;;
40707;SDS011;26392;42.696;23.350;2022-10-19T00:53:06;18.88;;;8.23;;
40707;SDS011;26392;42.696;23.350;2022-10-19T00:55:31;19.88;;;8.07;;
40707;SDS011;26392;42.696;23.350;2022-10-19T00:57:57;20.50;;;8.27;;
40707;SDS011;26392;42.696;23.350;2022-10-19T01:00:24;17.77;;;7.85;;
40707;SDS011;26392;42.696;23.350;2022-10-19T01:02:49;22.77;;;8.40;;
40707;SDS011;26392;42.696;23.350;2022-10-19T01:05:15;21.05;;;8.60;;
40707;SDS011;26392;42.696;23.350;2022-10-19T01:07:42;22.05;;;9.57;;
40707;SDS011;26392;42.696;23.350;2022-10-19T01:10:08;20.90;;;8.93;;
40707;SDS011;26392;42.696;23.350;2022-10-19T01:12:50;24.40;;;8.43;;
40707;SDS011;26392;42.696;23.350;2022-10-19T01:15:47;23.65;;;9.30;;
40707;SDS011;26392;42.696;23.350;2022-10-19T01:29:56;22.20;;;9.52;;
40707;SDS011;26392;42.696;23.350;2022-10-19T01:35:22;23.45;;;8.90;;
40707;SDS011;26392;42.696;23.350;2022-10-19T01:37:55;31.80;;;8.82;;
40707;SDS011;26392;42.696;23.350;2022-10-19T01:42:59;23.85;;;8.77;;
40707;SDS011;26392;42.696;23.350;2022-10-19T01:48:17;21.70;;;9.38;;
40707;SDS011;26392;42.696;23.350;2022-10-19T01:51:07;26.65;;;9.82;;
40707;SDS011;26392;42.696;23.350;2022-10-19T01:53:42;19.30;;;9.75;;
40707;SDS011;26392;42.696;23.350;2022-10-19T01:56:11;27.30;;;10.97;;
40707;SDS011;26392;42.696;23.350;2022-10-19T01:58:38;21.70;;;9.70;;
40707;SDS011;26392;42.696;23.350;2022-10-19T02:01:08;23.45;;;10.00;;
40707;SDS011;26392;42.696;23.350;2022-10-19T02:03:36;25.52;;;10.80;;
40707;SDS011;26392;42.696;23.350;2022-10-19T02:06:04;30.20;;;9.98;;
40707;SDS011;26392;42.696;23.350;2022-10-19T02:08:49;28.83;;;10.35;;
40707;SDS011;26392;42.696;23.350;2022-10-19T02:11:17;24.07;;;10.13;;
40707;SDS011;26392;42.696;23.350;2022-10-19T02:13:44;24.65;;;10.40;;
40707;SDS011;26392;42.696;23.350;2022-10-19T02:16:13;32.53;;;10.38;;
40707;SDS011;26392;42.696;23.350;2022-10-19T02:18:45;23.55;;;9.80;;
40707;SDS011;26392;42.696;23.350;2022-10-19T02:21:15;23.25;;;10.55;;
40707;SDS011;26392;42.696;23.350;2022-10-19T02:23:40;21.45;;;9.73;;
40707;SDS011;26392;42.696;23.350;2022-10-19T02:26:06;27.70;;;10.05;;
40707;SDS011;26392;42.696;23.350;2022-10-19T02:28:32;22.42;;;9.40;;
40707;SDS011;26392;42.696;23.350;2022-10-19T02:30:58;25.98;;;10.32;;
40707;SDS011;26392;42.696;23.350;2022-10-19T02:33:24;25.52;;;9.43;;
40707;SDS011;26392;42.696;23.350;2022-10-19T02:35:51;22.17;;;9.38;;
40707;SDS011;26392;42.696;23.350;2022-10-19T02:38:19;24.95;;;10.13;;
40707;SDS011;26392;42.696;23.350;2022-10-19T02:40:58;23.27;;;11.30;;
40707;SDS011;26392;42.696;23.350;2022-10-19T02:43:24;23.92;;;9.63;;
40707;SDS011;26392;42.696;23.350;2022-10-19T02:46:12;29.52;;;11.57;;
40707;SDS011;26392;42.696;23.350;2022-10-19T02:48:44;24.25;;;10.30;;
40707;SDS011;26392;42.696;23.350;2022-10-19T02:51:30;26.90;;;10.93;;
40707;SDS011;26392;42.696;23.350;2022-10-19T02:54:00;25.67;;;11.27;;
40707;SDS011;26392;42.696;23.350;2022-10-19T02:56:26;31.80;;;11.32;;
40707;SDS011;26392;42.696;23.350;2022-10-19T02:58:52;26.80;;;10.65;;
40707;SDS011;26392;42.696;23.350;2022-10-19T03:01:18;30.08;;;11.85;;
40707;SDS011;26392;42.696;23.350;2022-10-19T03:03:43;31.05;;;13.90;;
40707;SDS011;26392;42.696;23.350;2022-10-19T03:06:09;33.17;;;12.27;;
40707;SDS011;26392;42.696;23.350;2022-10-19T03:08:34;30.13;;;12.90;;
40707;SDS011;26392;42.696;23.350;2022-10-19T03:11:00;31.20;;;13.48;;
40707;SDS011;26392;42.696;23.350;2022-10-19T03:13:25;37.25;;;14.75;;
40707;SDS011;26392;42.696;23.350;2022-10-19T03:15:51;39.17;;;14.43;;
40707;SDS011;26392;42.696;23.350;2022-10-19T03:18:16;29.70;;;14.10;;
40707;SDS011;26392;42.696;23.350;2022-10-19T03:20:42;40.70;;;14.02;;
40707;SDS011;26392;42.696;23.350;2022-10-19T03:23:07;31.58;;;13.38;;
40707;SDS011;26392;42.696;23.350;2022-10-19T03:25:33;34.22;;;12.73;;
40707;SDS011;26392;42.696;23.350;2022-10-19T03:27:58;33.97;;;13.05;;
40707;SDS011;26392;42.696;23.350;2022-10-19T03:30:23;26.90;;;12.77;;
40707;SDS011;26392;42.696;23.350;2022-10-19T03:32:49;32.58;;;12.15;;
40707;SDS011;26392;42.696;23.350;2022-10-19T03:35:14;38.00;;;12.02;;
40707;SDS011;26392;42.696;23.350;2022-10-19T03:37:40;32.50;;;12.07;;
40707;SDS011;26392;42.696;23.350;2022-10-19T03:40:05;31.98;;;12.52;;
40707;SDS011;26392;42.696;23.350;2022-10-19T03:42:31;34.42;;;12.20;;
40707;SDS011;26392;42.696;23.350;2022-10-19T03:44:56;34.97;;;12.07;;
40707;SDS011;26392;42.696;23.350;2022-10-19T03:47:21;31.48;;;12.82;;
40707;SDS011;26392;42.696;23.350;2022-10-19T03:49:47;32.63;;;12.45;;
40707;SDS011;26392;42.696;23.350;2022-10-19T03:52:14;27.58;;;12.75;;
40707;SDS011;26392;42.696;23.350;2022-10-19T03:54:40;25.45;;;13.27;;
40707;SDS011;26392;42.696;23.350;2022-10-19T03:57:06;21.55;;;11.15;;
40707;SDS011;26392;42.696;23.350;2022-10-19T03:59:31;26.05;;;11.85;;
40707;SDS011;26392;42.696;23.350;2022-10-19T04:01:56;26.75;;;11.80;;
40707;SDS011;26392;42.696;23.350;2022-10-19T04:04:22;38.05;;;14.27;;
40707;SDS011;26392;42.696;23.350;2022-10-19T04:06:48;31.55;;;13.02;;
40707;SDS011;26392;42.696;23.350;2022-10-19T04:09:17;37.38;;;14.10;;
40707;SDS011;26392;42.696;23.350;2022-10-19T04:11:44;33.90;;;14.15;;
40707;SDS011;26392;42.696;23.350;2022-10-19T04:14:11;28.75;;;13.13;;
40707;SDS011;26392;42.696;23.350;2022-10-19T04:16:37;29.77;;;11.75;;
40707;SDS011;26392;42.696;23.350;2022-10-19T04:19:03;28.30;;;12.32;;
40707;SDS011;26392;42.696;23.350;2022-10-19T04:21:32;35.70;;;13.05;;
40707;SDS011;26392;42.696;23.350;2022-10-19T04:24:06;33.17;;;12.82;;
40707;SDS011;26392;42.696;23.350;2022-10-19T04:26:36;37.15;;;12.85;;
40707;SDS011;26392;42.696;23.350;2022-10-19T04:29:03;36.42;;;14.13;;
40707;SDS011;26392;42.696;23.350;2022-10-19T04:31:29;26.73;;;12.50;;
40707;SDS011;26392;42.696;23.350;2022-10-19T04:33:54;29.30;;;13.27;;
40707;SDS011;26392;42.696;23.350;2022-10-19T04:36:20;52.75;;;15.02;;
40707;SDS011;26392;42.696;23.350;2022-10-19T04:38:46;49.42;;;15.35;;
40707;SDS011;26392;42.696;23.350;2022-10-19T04:41:13;35.65;;;14.70;;
40707;SDS011;26392;42.696;23.350;2022-10-19T04:43:41;38.58;;;14.75;;
40707;SDS011;26392;42.696;23.350;2022-10-19T04:46:10;33.90;;;14.00;;
40707;SDS011;26392;42.696;23.350;2022-10-19T04:48:38;38.13;;;16.13;;
40707;SDS011;26392;42.696;23.350;2022-10-19T04:51:05;35.40;;;15.68;;
40707;SDS011;26392;42.696;23.350;2022-10-19T04:53:31;46.97;;;17.25;;
40707;SDS011;26392;42.696;23.350;2022-10-19T04:55:57;37.78;;;14.50;;
40707;SDS011;26392;42.696;23.350;2022-10-19T04:58:23;21.10;;;10.25;;
40707;SDS011;26392;42.696;23.350;2022-10-19T05:00:51;28.63;;;11.35;;
40707;SDS011;26392;42.696;23.350;2022-10-19T05:03:17;35.30;;;12.35;;
40707;SDS011;26392;42.696;23.350;2022-10-19T05:05:42;27.13;;;10.88;;
40707;SDS011;26392;42.696;23.350;2022-10-19T05:08:08;28.38;;;11.75;;
40707;SDS011;26392;42.696;23.350;2022-10-19T05:10:34;38.17;;;11.20;;
40707;SDS011;26392;42.696;23.350;2022-10-19T05:13:00;27.85;;;10.73;;
40707;SDS011;26392;42.696;23.350;2022-10-19T05:15:26;29.23;;;11.57;;
40707;SDS011;26392;42.696;23.350;2022-10-19T05:17:53;30.85;;;11.88;;
40707;SDS011;26392;42.696;23.350;2022-10-19T05:20:18;24.90;;;10.80;;
40707;SDS011;26392;42.696;23.350;2022-10-19T05:22:44;31.95;;;11.13;;
40707;SDS011;26392;42.696;23.350;2022-10-19T05:25:09;25.42;;;10.48;;
40707;SDS011;26392;42.696;23.350;2022-10-19T05:27:34;25.67;;;10.55;;
40707;SDS011;26392;42.696;23.350;2022-10-19T05:30:00;22.45;;;9.95;;
40707;SDS011;26392;42.696;23.350;2022-10-19T05:32:26;27.33;;;11.82;;
40707;SDS011;26392;42.696;23.350;2022-10-19T05:34:51;34.95;;;15.88;;
40707;SDS011;26392;42.696;23.350;2022-10-19T05:37:17;41.97;;;14.45;;
40707;SDS011;26392;42.696;23.350;2022-10-19T05:39:42;61.60;;;23.48;;
40707;SDS011;26392;42.696;23.350;2022-10-19T05:42:08;42.35;;;18.05;;
40707;SDS011;26392;42.696;23.350;2022-10-19T05:44:33;41.95;;;17.77;;
40707;SDS011;26392;42.696;23.350;2022-10-19T05:47:00;41.17;;;16.05;;
40707;SDS011;26392;42.696;23.350;2022-10-19T05:49:26;34.50;;;13.18;;
40707;SDS011;26392;42.696;23.350;2022-10-19T05:51:51;24.17;;;11.57;;
40707;SDS011;26392;42.696;23.350;2022-10-19T05:54:18;23.40;;;10.02;;
40707;SDS011;26392;42.696;23.350;2022-10-19T05:56:43;32.38;;;10.25;;
40707;SDS011;26392;42.696;23.350;2022-10-19T05:59:12;19.85;;;8.43;;
40707;SDS011;26392;42.696;23.350;2022-10-19T06:01:39;17.95;;;8.65;;
40707;SDS011;26392;42.696;23.350;2022-10-19T06:04:05;22.17;;;10.35;;
40707;SDS011;26392;42.696;23.350;2022-10-19T06:06:31;24.70;;;9.70;;
40707;SDS011;26392;42.696;23.350;2022-10-19T06:08:57;23.45;;;10.63;;
40707;SDS011;26392;42.696;23.350;2022-10-19T06:11:27;21.90;;;10.15;;
40707;SDS011;26392;42.696;23.350;2022-10-19T06:13:55;29.83;;;10.90;;
40707;SDS011;26392;42.696;23.350;2022-10-19T06:16:23;19.13;;;9.05;;
40707;SDS011;26392;42.696;23.350;2022-10-19T06:18:51;24.08;;;10.00;;
40707;SDS011;26392;42.696;23.350;2022-10-19T06:21:21;23.90;;;9.77;;
40707;SDS011;26392;42.696;23.350;2022-10-19T06:23:49;16.90;;;9.00;;
40707;SDS011;26392;42.696;23.350;2022-10-19T06:26:16;21.90;;;9.82;;
40707;SDS011;26392;42.696;23.350;2022-10-19T06:28:42;22.63;;;9.30;;
40707;SDS011;26392;42.696;23.350;2022-10-19T06:31:07;28.65;;;9.98;;
40707;SDS011;26392;42.696;23.350;2022-10-19T06:33:33;19.63;;;9.38;;
40707;SDS011;26392;42.696;23.350;2022-10-19T06:38:35;23.88;;;8.73;;
40707;SDS011;26392;42.696;23.350;2022-10-19T06:41:01;27.88;;;9.82;;
40707;SDS011;26392;42.696;23.350;2022-10-19T06:43:27;21.75;;;9.70;;
40707;SDS011;26392;42.696;23.350;2022-10-19T06:45:52;27.02;;;9.23;;
40707;SDS011;26392;42.696;23.350;2022-10-19T06:48:18;31.42;;;9.23;;
40707;SDS011;26392;42.696;23.350;2022-10-19T06:50:44;22.60;;;9.95;;
40707;SDS011;26392;42.696;23.350;2022-10-19T06:53:09;20.83;;;8.95;;
40707;SDS011;26392;42.696;23.350;2022-10-19T06:55:35;20.25;;;8.77;;
40707;SDS011;26392;42.696;23.350;2022-10-19T06:58:01;21.70;;;9.05;;
40707;SDS011;26392;42.696;23.350;2022-10-19T07:00:27;25.02;;;10.05;;
40707;SDS011;26392;42.696;23.350;2022-10-19T07:02:53;24.63;;;9.95;;
40707;SDS011;26392;42.696;23.350;2022-10-19T07:05:19;29.20;;;10.32;;
40707;SDS011;26392;42.696;23.350;2022-10-19T07:07:44;22.13;;;9.70;;
40707;SDS011;26392;42.696;23.350;2022-10-19T07:10:10;22.77;;;9.88;;
40707;SDS011;26392;42.696;23.350;2022-10-19T07:12:36;24.52;;;10.30;;
40707;SDS011;26392;42.696;23.350;2022-10-19T07:15:02;20.45;;;9.60;;
40707;SDS011;26392;42.696;23.350;2022-10-19T07:17:28;26.90;;;9.80;;
40707;SDS011;26392;42.696;23.350;2022-10-19T07:19:53;26.63;;;10.15;;
40707;SDS011;26392;42.696;23.350;2022-10-19T07:22:19;25.52;;;10.48;;
40707;SDS011;26392;42.696;23.350;2022-10-19T07:24:44;30.55;;;11.20;;
40707;SDS011;26392;42.696;23.350;2022-10-19T07:27:10;25.25;;;10.02;;
40707;SDS011;26392;42.696;23.350;2022-10-19T07:29:35;28.27;;;10.45;;
40707;SDS011;26392;42.696;23.350;2022-10-19T07:32:00;22.92;;;11.07;;
40707;SDS011;26392;42.696;23.350;2022-10-19T07:34:26;21.90;;;10.80;;
40707;SDS011;26392;42.696;23.350;2022-10-19T07:36:51;40.35;;;12.57;;
40707;SDS011;26392;42.696;23.350;2022-10-19T07:39:18;30.40;;;11.63;;
40707;SDS011;26392;42.696;23.350;2022-10-19T07:41:45;27.17;;;11.20;;
40707;SDS011;26392;42.696;23.350;2022-10-19T07:44:10;30.67;;;11.25;;
40707;SDS011;26392;42.696;23.350;2022-10-19T07:46:37;31.83;;;12.13;;
40707;SDS011;26392;42.696;23.350;2022-10-19T07:49:04;26.73;;;12.10;;
40707;SDS011;26392;42.696;23.350;2022-10-19T07:51:31;30.10;;;12.32;;
40707;SDS011;26392;42.696;23.350;2022-10-19T07:53:57;30.48;;;12.82;;
40707;SDS011;26392;42.696;23.350;2022-10-19T07:56:24;34.05;;;12.68;;
40707;SDS011;26392;42.696;23.350;2022-10-19T07:58:52;28.48;;;11.38;;
40707;SDS011;26392;42.696;23.350;2022-10-19T08:01:20;36.40;;;11.57;;
40707;SDS011;26392;42.696;23.350;2022-10-19T08:03:47;31.63;;;12.60;;
40707;SDS011;26392;42.696;23.350;2022-10-19T08:06:14;24.98;;;12.00;;
40707;SDS011;26392;42.696;23.350;2022-10-19T08:08:41;25.35;;;11.50;;
40707;SDS011;26392;42.696;23.350;2022-10-19T08:13:43;26.13;;;10.73;;
40707;SDS011;26392;42.696;23.350;2022-10-19T08:18:55;32.72;;;10.82;;
40707;SDS011;26392;42.696;23.350;2022-10-19T08:21:22;26.55;;;11.18;;
40707;SDS011;26392;42.696;23.350;2022-10-19T08:23:47;27.25;;;10.18;;
40707;SDS011;26392;42.696;23.350;2022-10-19T08:26:13;17.23;;;8.50;;
40707;SDS011;26392;42.696;23.350;2022-10-19T08:28:38;24.30;;;8.30;;
40707;SDS011;26392;42.696;23.350;2022-10-19T08:31:14;23.95;;;9.00;;
40707;SDS011;26392;42.696;23.350;2022-10-19T08:33:42;16.90;;;9.00;;
40707;SDS011;26392;42.696;23.350;2022-10-19T08:36:08;17.98;;;8.57;;
40707;SDS011;26392;42.696;23.350;2022-10-19T08:38:36;18.88;;;8.90;;
40707;SDS011;26392;42.696;23.350;2022-10-19T08:41:06;23.13;;;8.43;;
40707;SDS011;26392;42.696;23.350;2022-10-19T08:43:40;15.50;;;8.35;;
40707;SDS011;26392;42.696;23.350;2022-10-19T08:48:45;19.42;;;9.07;;
40707;SDS011;26392;42.696;23.350;2022-10-19T08:51:11;25.88;;;8.60;;
40707;SDS011;26392;42.696;23.350;2022-10-19T08:53:56;20.27;;;8.35;;
40707;SDS011;26392;42.696;23.350;2022-10-19T09:01:51;15.95;;;7.50;;
40707;SDS011;26392;42.696;23.350;2022-10-19T09:09:50;10.25;;;5.28;;
40707;SDS011;26392;42.696;23.350;2022-10-19T09:12:44;18.92;;;5.90;;
40707;SDS011;26392;42.696;23.350;2022-10-19T09:21:01;9.13;;;3.88;;
40707;SDS011;26392;42.696;23.350;2022-10-19T09:25:59;8.65;;;3.63;;
40707;SDS011;26392;42.696;23.350;2022-10-19T09:32:00;12.93;;;4.35;;
40707;SDS011;26392;42.696;23.350;2022-10-19T09:34:21;9.65;;;4.10;;
40707;SDS011;26392;42.696;23.350;2022-10-19T09:36:53;6.38;;;3.72;;
40707;SDS011;26392;42.696;23.350;2022-10-19T09:39:21;10.05;;;3.78;;
40707;SDS011;26392;42.696;23.350;2022-10-19T09:44:38;9.40;;;3.83;;
40707;SDS011;26392;42.696;23.350;2022-10-19T09:47:27;8.88;;;3.33;;
40707;SDS011;26392;42.696;23.350;2022-10-19T09:55:04;5.60;;;2.88;;
40707;SDS011;26392;42.696;23.350;2022-10-19T09:58:23;10.40;;;3.17;;
40707;SDS011;26392;42.696;23.350;2022-10-19T10:00:49;13.50;;;3.42;;
40707;SDS011;26392;42.696;23.350;2022-10-19T10:03:31;7.05;;;4.25;;
40707;SDS011;26392;42.696;23.350;2022-10-19T10:06:06;7.68;;;4.18;;
40707;SDS011;26392;42.696;23.350;2022-10-19T10:08:53;7.35;;;3.75;;
40707;SDS011;26392;42.696;23.350;2022-10-19T10:11:23;4.97;;;3.58;;
40707;SDS011;26392;42.696;23.350;2022-10-19T10:13:52;7.43;;;3.20;;
40707;SDS011;26392;42.696;23.350;2022-10-19T10:16:20;8.25;;;3.70;;
40707;SDS011;26392;42.696;23.350;2022-10-19T10:21:22;17.60;;;3.42;;
40707;SDS011;26392;42.696;23.350;2022-10-19T10:24:03;9.48;;;3.53;;
40707;SDS011;26392;42.696;23.350;2022-10-19T10:29:01;6.53;;;3.75;;
40707;SDS011;26392;42.696;23.350;2022-10-19T10:31:27;8.20;;;3.03;;
40707;SDS011;26392;42.696;23.350;2022-10-19T10:33:58;10.07;;;3.90;;
40707;SDS011;26392;42.696;23.350;2022-10-19T10:36:26;8.32;;;3.58;;
40707;SDS011;26392;42.696;23.350;2022-10-19T10:38:56;11.23;;;3.13;;
40707;SDS011;26392;42.696;23.350;2022-10-19T10:41:27;4.10;;;3.40;;
40707;SDS011;26392;42.696;23.350;2022-10-19T10:43:54;11.60;;;3.67;;
40707;SDS011;26392;42.696;23.350;2022-10-19T10:46:48;6.18;;;3.40;;
40707;SDS011;26392;42.696;23.350;2022-10-19T10:49:21;7.00;;;3.25;;
40707;SDS011;26392;42.696;23.350;2022-10-19T10:51:56;11.60;;;3.60;;
40707;SDS011;26392;42.696;23.350;2022-10-19T10:57:33;7.03;;;3.17;;
40707;SDS011;26392;42.696;23.350;2022-10-19T11:05:10;6.40;;;3.10;;
40707;SDS011;26392;42.696;23.350;2022-10-19T11:07:43;8.95;;;3.08;;
40707;SDS011;26392;42.696;23.350;2022-10-19T11:10:20;6.65;;;3.00;;
40707;SDS011;26392;42.696;23.350;2022-10-19T11:15:56;6.05;;;3.22;;
40707;SDS011;26392;42.696;23.350;2022-10-19T11:18:29;4.82;;;2.60;;
40707;SDS011;26392;42.696;23.350;2022-10-19T11:21:05;6.00;;;3.33;;
40707;SDS011;26392;42.696;23.350;2022-10-19T11:28:49;7.60;;;2.88;;
40707;SDS011;26392;42.696;23.350;2022-10-19T11:34:06;6.40;;;3.17;;
40707;SDS011;26392;42.696;23.350;2022-10-19T11:36:48;9.25;;;3.10;;
40707;SDS011;26392;42.696;23.350;2022-10-19T11:42:17;5.85;;;2.75;;
40707;SDS011;26392;42.696;23.350;2022-10-19T11:50:47;4.85;;;2.00;;
40707;SDS011;26392;42.696;23.350;2022-10-19T11:56:33;3.80;;;2.28;;
40707;SDS011;26392;42.696;23.350;2022-10-19T12:01:50;5.82;;;2.75;;
40707;SDS011;26392;42.696;23.350;2022-10-19T12:14:50;8.82;;;2.90;;
40707;SDS011;26392;42.696;23.350;2022-10-19T12:17:23;4.82;;;2.95;;
40707;SDS011;26392;42.696;23.350;2022-10-19T12:19:54;8.85;;;2.55;;
40707;SDS011;26392;42.696;23.350;2022-10-19T12:22:24;8.98;;;2.85;;
40707;SDS011;26392;42.696;23.350;2022-10-19T12:24:53;8.77;;;3.30;;
40707;SDS011;26392;42.696;23.350;2022-10-19T12:27:42;5.97;;;2.85;;
40707;SDS011;26392;42.696;23.350;2022-10-19T12:30:13;4.18;;;2.40;;
40707;SDS011;26392;42.696;23.350;2022-10-19T12:33:12;5.05;;;2.83;;
40707;SDS011;26392;42.696;23.350;2022-10-19T12:44:32;5.38;;;3.17;;
40707;SDS011;26392;42.696;23.350;2022-10-19T12:47:00;5.97;;;3.22;;
40707;SDS011;26392;42.696;23.350;2022-10-19T12:49:34;8.40;;;3.05;;
40707;SDS011;26392;42.696;23.350;2022-10-19T12:52:02;6.40;;;3.40;;
40707;SDS011;26392;42.696;23.350;2022-10-19T12:54:30;9.05;;;3.17;;
40707;SDS011;26392;42.696;23.350;2022-10-19T12:56:59;8.75;;;3.28;;
40707;SDS011;26392;42.696;23.350;2022-10-19T12:59:28;8.30;;;3.50;;
40707;SDS011;26392;42.696;23.350;2022-10-19T13:01:56;13.35;;;3.38;;
40707;SDS011;26392;42.696;23.350;2022-10-19T13:09:40;7.75;;;3.20;;
40707;SDS011;26392;42.696;23.350;2022-10-19T13:17:53;9.88;;;3.83;;
40707;SDS011;26392;42.696;23.350;2022-10-19T13:22:37;4.97;;;3.40;;
40707;SDS011;26392;42.696;23.350;2022-10-19T13:27:41;5.63;;;3.17;;
40707;SDS011;26392;42.696;23.350;2022-10-19T13:43:49;9.73;;;3.30;;
40707;SDS011;26392;42.696;23.350;2022-10-19T13:57:28;4.80;;;3.20;;
40707;SDS011;26392;42.696;23.350;2022-10-19T14:00:23;9.10;;;3.45;;
40707;SDS011;26392;42.696;23.350;2022-10-19T14:03:01;8.65;;;3.88;;
40707;SDS011;26392;42.696;23.350;2022-10-19T14:08:53;9.88;;;3.15;;
40707;SDS011;26392;42.696;23.350;2022-10-19T14:14:19;17.50;;;3.30;;
40707;SDS011;26392;42.696;23.350;2022-10-19T14:16:51;6.40;;;3.20;;
40707;SDS011;26392;42.696;23.350;2022-10-19T14:19:28;8.70;;;3.50;;
40707;SDS011;26392;42.696;23.350;2022-10-19T14:21:57;5.65;;;3.50;;
40707;SDS011;26392;42.696;23.350;2022-10-19T14:24:41;9.73;;;3.80;;
40707;SDS011;26392;42.696;23.350;2022-10-19T14:27:06;7.38;;;3.92;;
40707;SDS011;26392;42.696;23.350;2022-10-19T14:29:34;13.57;;;4.32;;
40707;SDS011;26392;42.696;23.350;2022-10-19T14:32:08;7.63;;;3.45;;
40707;SDS011;26392;42.696;23.350;2022-10-19T14:34:41;6.20;;;3.72;;
40707;SDS011;26392;42.696;23.350;2022-10-19T14:37:30;13.32;;;3.90;;
40707;SDS011;26392;42.696;23.350;2022-10-19T14:42:33;11.18;;;4.20;;
40707;SDS011;26392;42.696;23.350;2022-10-19T14:45:23;7.18;;;4.20;;
40707;SDS011;26392;42.696;23.350;2022-10-19T14:47:52;6.88;;;3.30;;
40707;SDS011;26392;42.696;23.350;2022-10-19T14:50:41;7.22;;;3.97;;
40707;SDS011;26392;42.696;23.350;2022-10-19T14:55:43;6.22;;;3.55;;
40707;SDS011;26392;42.696;23.350;2022-10-19T14:58:11;6.97;;;3.90;;
40707;SDS011;26392;42.696;23.350;2022-10-19T15:00:41;8.00;;;4.38;;
40707;SDS011;26392;42.696;23.350;2022-10-19T15:03:09;9.60;;;3.83;;
40707;SDS011;26392;42.696;23.350;2022-10-19T15:05:45;6.22;;;3.80;;
40707;SDS011;26392;42.696;23.350;2022-10-19T15:08:21;7.47;;;4.40;;
40707;SDS011;26392;42.696;23.350;2022-10-19T15:10:56;10.40;;;4.27;;
40707;SDS011;26392;42.696;23.350;2022-10-19T15:13:24;10.20;;;3.80;;
40707;SDS011;26392;42.696;23.350;2022-10-19T15:15:52;11.40;;;5.10;;
40707;SDS011;26392;42.696;23.350;2022-10-19T15:18:20;13.00;;;4.43;;
40707;SDS011;26392;42.696;23.350;2022-10-19T15:20:59;13.13;;;4.38;;
40707;SDS011;26392;42.696;23.350;2022-10-19T15:29:05;10.27;;;4.82;;
40707;SDS011;26392;42.696;23.350;2022-10-19T15:31:33;10.32;;;4.80;;
40707;SDS011;26392;42.696;23.350;2022-10-19T15:33:59;9.07;;;5.13;;
40707;SDS011;26392;42.696;23.350;2022-10-19T15:36:26;15.20;;;5.65;;
40707;SDS011;26392;42.696;23.350;2022-10-19T15:41:29;11.80;;;5.50;;
40707;SDS011;26392;42.696;23.350;2022-10-19T15:43:59;8.32;;;4.93;;
40707;SDS011;26392;42.696;23.350;2022-10-19T15:46:31;13.93;;;5.45;;
40707;SDS011;26392;42.696;23.350;2022-10-19T15:51:50;15.95;;;6.13;;
40707;SDS011;26392;42.696;23.350;2022-10-19T15:54:16;13.75;;;6.05;;
40707;SDS011;26392;42.696;23.350;2022-10-19T15:56:44;12.52;;;5.80;;
40707;SDS011;26392;42.696;23.350;2022-10-19T15:59:12;13.90;;;6.45;;
40707;SDS011;26392;42.696;23.350;2022-10-19T16:01:40;14.63;;;6.32;;
40707;SDS011;26392;42.696;23.350;2022-10-19T16:04:06;11.30;;;5.75;;
40707;SDS011;26392;42.696;23.350;2022-10-19T16:06:32;9.75;;;5.72;;
40707;SDS011;26392;42.696;23.350;2022-10-19T16:08:58;10.07;;;6.03;;
40707;SDS011;26392;42.696;23.350;2022-10-19T16:11:25;16.08;;;6.50;;
40707;SDS011;26392;42.696;23.350;2022-10-19T16:13:51;12.82;;;6.50;;
40707;SDS011;26392;42.696;23.350;2022-10-19T16:16:23;16.35;;;6.82;;
40707;SDS011;26392;42.696;23.350;2022-10-19T16:18:51;14.20;;;6.88;;
40707;SDS011;26392;42.696;23.350;2022-10-19T16:21:17;14.48;;;6.35;;
40707;SDS011;26392;42.696;23.350;2022-10-19T16:23:44;17.30;;;7.40;;
40707;SDS011;26392;42.696;23.350;2022-10-19T16:26:10;13.55;;;6.80;;
40707;SDS011;26392;42.696;23.350;2022-10-19T16:28:38;16.42;;;6.22;;
40707;SDS011;26392;42.696;23.350;2022-10-19T16:31:03;18.42;;;7.13;;
40707;SDS011;26392;42.696;23.350;2022-10-19T16:33:29;12.27;;;7.32;;
40707;SDS011;26392;42.696;23.350;2022-10-19T16:35:54;12.82;;;6.40;;
40707;SDS011;26392;42.696;23.350;2022-10-19T16:38:20;16.50;;;6.50;;
40707;SDS011;26392;42.696;23.350;2022-10-19T16:40:45;14.93;;;6.65;;
40707;SDS011;26392;42.696;23.350;2022-10-19T16:43:10;18.13;;;7.15;;
40707;SDS011;26392;42.696;23.350;2022-10-19T16:45:36;13.93;;;7.82;;
40707;SDS011;26392;42.696;23.350;2022-10-19T16:48:06;12.32;;;7.07;;
40707;SDS011;26392;42.696;23.350;2022-10-19T16:50:31;11.13;;;6.55;;
40707;SDS011;26392;42.696;23.350;2022-10-19T16:53:04;15.20;;;7.82;;
40707;SDS011;26392;42.696;23.350;2022-10-19T16:55:36;16.08;;;7.32;;
40707;SDS011;26392;42.696;23.350;2022-10-19T16:58:03;14.68;;;7.18;;
40707;SDS011;26392;42.696;23.350;2022-10-19T17:00:29;17.50;;;8.40;;
40707;SDS011;26392;42.696;23.350;2022-10-19T17:02:54;17.65;;;8.50;;
40707;SDS011;26392;42.696;23.350;2022-10-19T17:05:19;23.05;;;8.27;;
40707;SDS011;26392;42.696;23.350;2022-10-19T17:07:45;19.13;;;8.82;;
40707;SDS011;26392;42.696;23.350;2022-10-19T17:10:10;19.25;;;9.13;;
40707;SDS011;26392;42.696;23.350;2022-10-19T17:12:37;18.85;;;8.70;;
40707;SDS011;26392;42.696;23.350;2022-10-19T17:15:04;20.63;;;8.32;;
40707;SDS011;26392;42.696;23.350;2022-10-19T17:17:29;15.90;;;8.45;;
40707;SDS011;26392;42.696;23.350;2022-10-19T17:19:55;17.73;;;8.93;;
40707;SDS011;26392;42.696;23.350;2022-10-19T17:22:20;16.70;;;8.48;;
40707;SDS011;26392;42.696;23.350;2022-10-19T17:24:46;17.60;;;8.52;;
40707;SDS011;26392;42.696;23.350;2022-10-19T17:27:11;19.65;;;8.45;;
40707;SDS011;26392;42.696;23.350;2022-10-19T17:29:37;14.90;;;8.40;;
40707;SDS011;26392;42.696;23.350;2022-10-19T17:32:02;19.42;;;8.45;;
40707;SDS011;26392;42.696;23.350;2022-10-19T17:34:27;12.05;;;7.68;;
40707;SDS011;26392;42.696;23.350;2022-10-19T17:36:53;19.95;;;9.10;;